首页
METAR-TAF:

METAR-TAF

机场 :

Valley, 威尔士

纬度: 53-15N, 经度: 004-32W, 海拔: 1米

当前天气观测

该预报发布于29分钟前的06:50 UTC
风速27节,风向西南
温度 7°C
湿度 81%
气压 997 hPa
能见度10公里或以上
少量云层高于2100英尺

METAR: EGOV 170650Z 23027KT 9999 FEW021 07/04 Q0997 TEMPO SCT021 RMK BLU TEMPO WHT

时间: 07:19 (07:19 UTC)

预报

该预报发布于1小时和8分钟前的06:11 UTC
预报有效从17日的 07点(UTC)到 17日的 15点(UTC)
风速22节,风向西南,有时为32节阵风
能见度10公里或以上
少量云层高于2000英尺
散云层高于4000英尺
短暂存在
从 17日的 08点(UTC)到 17日的 15点(UTC)
散云层高于2000英尺
几率 40% :
短暂存在
从 17日的 11点(UTC)到 17日的 15点(UTC)
散云层高于2000英尺, 积雨云.
几率 30% :
短暂存在
从 17日的 11点(UTC)到 17日的 15点(UTC)
能見度: 7000
阵雨

TAF: EGOV 170611Z 1707/1715 23022G32KT 9999 FEW020 SCT040 TEMPO 1708/1715 SCT020 PROB40 TEMPO 1711/1715 SCT020CB PROB30 TEMPO 1711/1715 7000 SHRA

超过4000个机场的气象观测和天气预报(METAR&TAF报告)。

可查询的气象台以黄色和红色小点在地图上表示。

将鼠标移到小点上方,可查看气象台名称。

然后点击查看天气观测和预报。

如需切换地图:点击带黑十字的绿色按钮放大地图;点击带横线的绿色按钮缩小地图;或者点击绿色箭头查看邻近地区的地图。


METAR-TAF: